Portada
METAR-TAF:

METAR-TAF

Aeropuertos :

Florianópolis, Santa Catarina, Brasil

Aeropuerto Internacional Hercílio Luz

latitud: 27-40S, longitud: 048-33W, altitud: 5 m

Observación

El informe se hizo hace 53 minutos, a las 10:00 UTC
Viento 4 kt del oeste
Temperatura 15°C
Humedad 82%
Presión 1024 hPa
Visibilidad 10 km o más
sin nubes por debajo de 1500 m y sin presencia de cumulonimbus.

METAR: SBFL 301000Z 28004KT CAVOK 15/12 Q1024

Hora: 07:53 (10:53 UTC)

Pronóstico

El informe se hizo hace 8 horas y 53 minutos, a las 02:00 UTC
Pronóstico válido del 30 a las 06 UTC al 01 a las 06 UTC
Viento 8 kt del oeste
Visibilidad 10 km o más
sin nubes por debajo de 1500 m y sin presencia de cumulonimbus.
Evolucionando progresivamente
del 30 a las 16 UTC al 30 a las 18 UTC
Viento 6 kt del noreste

TAF: SBFL 300200Z 3006/0106 28008KT CAVOK TN15/3009Z TX24/3017Z BECMG 3016/3018 05006KT RMK PDV

Observaciones y pronósticos meteorológicos de más de 4000 aeropuertos (mensajes METAR y TAF).

Los puntos amarillos y rojos representan las estaciones disponibles.

Ponga el ratón en el punto deseado para ver el nombre de la estación.

Haga clic para ver las observaciones y los pronósticos meteorológicos.

Para cambiar el mapa : haga clic en los botones verdes con una cruz de color negro para hacer un zoom, en el botón verde con un guión para alejar o en las flechas verdes para mapas adyacentes.


METAR-TAF: